Windflight — WDF6324 — position and weather

sailwx.info

Track history (hours):
 
Tides and Currents Weather Stations Pressure Air Temp Water Temp Dewpoint Dewpoint Depression Visibility Wind Speed Wind Dir Waves Ship Positions

Windflight

Owner: Windflight Inc., Medina, WA. More information available from US FCC via Universal Licensing System and Coast Guard Vessel Documentation Center.

Last reported at 2017-Oct-17 20:13 UTC. Time now 2017-Oct-22 06:46 UTC.
Position N 47°41' W 122°25'.

Length 21 m.

Type: Pleasure craft. MMSI: 367473060.

Date/timePositionNaut miles runAvg speedWind from/ knotsBaromVisibWave heightAir tempDewpointWater temp
2017-Oct-17 20:13N 47°41' W 122°25'0 0.0
2017-Oct-17 19:58N 47°41' W 122°25'0 0.0
2017-Oct-17 19:28N 47°41' W 122°25'0 0.0
2017-Oct-17 18:58N 47°41' W 122°25'0 0.0
2017-Oct-17 18:28N 47°41' W 122°25'0 0.0
2017-Oct-16 21:54N 47°41' W 122°25'0 0.0
2017-Oct-16 21:27N 47°41' W 122°25'0 0.0
2017-Oct-16 21:00N 47°41' W 122°25'0 0.0
2017-Oct-15 22:44N 47°41' W 122°25'0 0.3
2017-Oct-15 22:29N 47°41' W 122°25'3 7.0
2017-Oct-15 22:00N 47°42' W 122°29'2 3.4
2017-Oct-15 21:26N 47°42' W 122°32'0 0.0
2017-Oct-15 20:56N 47°42' W 122°32'0 0.0
2017-Oct-15 20:20N 47°42' W 122°32'0 0.0
2017-Oct-15 19:56N 47°42' W 122°32'0 0.0
2017-Oct-15 19:08N 47°42' W 122°32'0 0.0
2017-Oct-15 18:38N 47°42' W 122°32'0 0.0
2017-Oct-15 18:26N 47°42' W 122°32'1 2.7
2017-Oct-15 18:00N 47°43' W 122°31'4 8.7
2017-Oct-15 17:30N 47°41' W 122°25'0 0.0
2017-Oct-13 20:43N 47°41' W 122°25'0 0.0
2017-Oct-13 20:28N 47°41' W 122°25'0 0.0
2017-Oct-13 19:58N 47°41' W 122°25'0 0.0
2017-Oct-13 19:28N 47°41' W 122°25'0 0.0
2017-Oct-13 18:52N 47°41' W 122°25'0 0.0
2017-Oct-13 18:28N 47°41' W 122°25'0 0.0
2017-Oct-11 22:36N 47°41' W 122°25'0 0.0
2017-Oct-11 22:30N 47°41' W 122°25'0 0.0
2017-Oct-11 22:00N 47°41' W 122°25'0 0.0
2017-Oct-11 21:30N 47°41' W 122°25'0 0.0
2017-Oct-11 21:00N 47°41' W 122°25'0 0.0
2017-Oct-11 20:30N 47°41' W 122°25'0 0.0
2017-Oct-10 21:47N 47°41' W 122°25'0 0.0
2017-Oct-10 21:29N 47°41' W 122°25'0 0.0
2017-Oct-10 20:59N 47°41' W 122°25'0 0.0
2017-Oct-10 20:29N 47°41' W 122°25'0 0.0
2017-Oct-10 19:59N 47°41' W 122°25'0 0.0
2017-Oct-10 19:29N 47°41' W 122°25'0 0.0
2017-Oct-10 18:59N 47°41' W 122°25'0 0.0
2017-Oct-10 18:29N 47°41' W 122°25'0 0.0
2017-Oct-08 20:07N 47°41' W 122°25'0 0.0
2017-Oct-08 19:58N 47°41' W 122°25'0 0.0
2017-Oct-08 19:28N 47°41' W 122°25'0 0.0
2017-Oct-08 18:58N 47°41' W 122°25'0 0.0
2017-Oct-08 18:28N 47°41' W 122°25'  
Track history (hours):
 
Tides and Currents Weather Stations Pressure Air Temp Water Temp Dewpoint Dewpoint Depression Visibility Wind Speed Wind Dir Waves Ship Positions

Windflight

Owner: Windflight Inc., Medina, WA. More information available from US FCC via Universal Licensing System and Coast Guard Vessel Documentation Center.

Last reported at 2017-Oct-17 20:13 UTC. Time now 2017-Oct-22 06:46 UTC.
Position N 47°41' W 122°25'.

Length 21 m.

Type: Pleasure craft. MMSI: 367473060.

Date/timePositionNaut miles runAvg speedWind from/ knotsBaromVisibWave heightAir tempDewpointWater temp
2017-Oct-17 20:13N 47°41' W 122°25'0 0.0
2017-Oct-17 19:58N 47°41' W 122°25'0 0.0
2017-Oct-17 19:28N 47°41' W 122°25'0 0.0
2017-Oct-17 18:58N 47°41' W 122°25'0 0.0
2017-Oct-17 18:28N 47°41' W 122°25'0 0.0
2017-Oct-16 21:54N 47°41' W 122°25'0 0.0
2017-Oct-16 21:27N 47°41' W 122°25'0 0.0
2017-Oct-16 21:00N 47°41' W 122°25'0 0.0
2017-Oct-15 22:44N 47°41' W 122°25'0 0.3
2017-Oct-15 22:29N 47°41' W 122°25'3 7.0
2017-Oct-15 22:00N 47°42' W 122°29'2 3.4
2017-Oct-15 21:26N 47°42' W 122°32'0 0.0
2017-Oct-15 20:56N 47°42' W 122°32'0 0.0
2017-Oct-15 20:20N 47°42' W 122°32'0 0.0
2017-Oct-15 19:56N 47°42' W 122°32'0 0.0
2017-Oct-15 19:08N 47°42' W 122°32'0 0.0
2017-Oct-15 18:38N 47°42' W 122°32'0 0.0
2017-Oct-15 18:26N 47°42' W 122°32'1 2.7
2017-Oct-15 18:00N 47°43' W 122°31'4 8.7
2017-Oct-15 17:30N 47°41' W 122°25'0 0.0
2017-Oct-13 20:43N 47°41' W 122°25'0 0.0
2017-Oct-13 20:28N 47°41' W 122°25'0 0.0
2017-Oct-13 19:58N 47°41' W 122°25'0 0.0
2017-Oct-13 19:28N 47°41' W 122°25'0 0.0
2017-Oct-13 18:52N 47°41' W 122°25'0 0.0
2017-Oct-13 18:28N 47°41' W 122°25'0 0.0
2017-Oct-11 22:36N 47°41' W 122°25'0 0.0
2017-Oct-11 22:30N 47°41' W 122°25'0 0.0
2017-Oct-11 22:00N 47°41' W 122°25'0 0.0
2017-Oct-11 21:30N 47°41' W 122°25'0 0.0
2017-Oct-11 21:00N 47°41' W 122°25'0 0.0
2017-Oct-11 20:30N 47°41' W 122°25'0 0.0
2017-Oct-10 21:47N 47°41' W 122°25'0 0.0
2017-Oct-10 21:29N 47°41' W 122°25'0 0.0
2017-Oct-10 20:59N 47°41' W 122°25'0 0.0
2017-Oct-10 20:29N 47°41' W 122°25'0 0.0
2017-Oct-10 19:59N 47°41' W 122°25'0 0.0
2017-Oct-10 19:29N 47°41' W 122°25'0 0.0
2017-Oct-10 18:59N 47°41' W 122°25'0 0.0
2017-Oct-10 18:29N 47°41' W 122°25'0 0.0
2017-Oct-08 20:07N 47°41' W 122°25'0 0.0
2017-Oct-08 19:58N 47°41' W 122°25'0 0.0
2017-Oct-08 19:28N 47°41' W 122°25'0 0.0
2017-Oct-08 18:58N 47°41' W 122°25'0 0.0
2017-Oct-08 18:28N 47°41' W 122°25'  

Dump ship's entire track history